createdAt,value
2022-09-02T00:03:35.353Z,14.17
2022-09-02T00:08:37.211Z,14.13
2022-09-02T00:13:38.917Z,14.11
2022-09-02T00:18:45.943Z,14.06
2022-09-02T00:23:47.967Z,14.04
2022-09-02T00:28:55.881Z,14.08
2022-09-02T00:33:58.138Z,13.99
2022-09-02T00:38:59.788Z,13.92
2022-09-02T00:44:03.809Z,13.98
2022-09-02T00:49:16.777Z,13.93
2022-09-02T00:54:21.097Z,13.89
2022-09-02T00:59:46.508Z,13.86
2022-09-02T01:04:48.213Z,13.87
2022-09-02T01:09:50.549Z,13.75
2022-09-02T01:14:52.257Z,13.68
2022-09-02T01:19:57.506Z,13.65
2022-09-02T01:25:02.952Z,13.48
2022-09-02T01:30:09.935Z,13.48
2022-09-02T01:35:12.499Z,13.48
2022-09-02T01:40:15.818Z,13.43
2022-09-02T01:45:18.555Z,13.41
2022-09-02T01:50:20.297Z,13.34
2022-09-02T01:55:22.790Z,13.31
2022-09-02T02:00:25.711Z,13.28
2022-09-02T02:05:27.520Z,13.26
2022-09-02T02:10:29.409Z,13.18
2022-09-02T02:20:32.050Z,13.18
2022-09-02T02:25:33.824Z,13.13
2022-09-02T02:30:35.625Z,13.06
2022-09-02T02:35:38.260Z,13.01
2022-09-02T02:40:40.052Z,13.01
2022-09-02T02:45:41.826Z,12.92
2022-09-02T02:50:43.743Z,12.94
2022-09-02T02:55:45.501Z,12.89
2022-09-02T03:00:52.097Z,12.90
2022-09-02T03:05:55.553Z,12.88
2022-09-02T03:10:58.033Z,12.84
2022-09-02T03:16:05.164Z,12.82
2022-09-02T03:21:08.619Z,12.80
2022-09-02T03:26:11.900Z,12.75
2022-09-02T03:31:19.231Z,12.71
2022-09-02T03:36:25.271Z,12.68
2022-09-02T03:41:27.251Z,12.69
2022-09-02T03:46:30.232Z,12.78
2022-09-02T03:51:32.656Z,12.79
2022-09-02T03:56:34.716Z,12.74
2022-09-02T04:01:37.500Z,12.74
2022-09-02T04:06:39.677Z,12.64
2022-09-02T04:11:42.801Z,12.61
2022-09-02T04:16:45.491Z,12.53
2022-09-02T04:21:48.562Z,12.49
2022-09-02T04:26:51.281Z,12.40
2022-09-02T04:31:53.312Z,12.37
2022-09-02T04:36:56.575Z,12.40
2022-09-02T04:41:58.811Z,12.41
2022-09-02T04:47:02.250Z,12.38
2022-09-02T04:52:04.387Z,12.35
2022-09-02T04:57:07.492Z,12.32
2022-09-02T05:02:11.003Z,12.35
2022-09-02T05:07:13.313Z,12.41
2022-09-02T05:12:19.481Z,12.44
2022-09-02T05:17:26.932Z,12.44
2022-09-02T05:22:29.530Z,12.50
2022-09-02T05:27:33.548Z,12.53
2022-09-02T05:32:37.930Z,12.63
2022-09-02T05:37:40.442Z,12.69
2022-09-02T05:42:43.593Z,12.72
2022-09-02T05:47:47.104Z,13.00
2022-09-02T05:52:51.802Z,13.15
2022-09-02T05:57:54.871Z,13.32
2022-09-02T06:02:58.769Z,13.36
2022-09-02T06:08:10.800Z,13.43
2022-09-02T06:13:13.326Z,13.53
2022-09-02T06:18:15.482Z,13.65
2022-09-02T06:23:19.049Z,13.63
2022-09-02T06:28:21.852Z,13.73
2022-09-02T06:33:24.448Z,13.80
2022-09-02T06:38:27.031Z,13.79
2022-09-02T06:43:28.995Z,13.78
2022-09-02T06:48:53.231Z,13.83
2022-09-02T06:53:57.402Z,13.90
2022-09-02T06:59:01.978Z,13.99
2022-09-02T07:04:52.112Z,14.07
2022-09-02T07:09:57.291Z,14.19
2022-09-02T07:14:59.129Z,14.33
2022-09-02T07:20:11.505Z,14.43
2022-09-02T07:25:18.505Z,14.56
2022-09-02T07:30:21.368Z,14.65
2022-09-02T07:35:26.834Z,14.79
2022-09-02T07:40:30.048Z,14.97
2022-09-02T07:45:32.210Z,15.07
2022-09-02T07:50:35.983Z,15.16
2022-09-02T07:55:39.480Z,15.25
2022-09-02T08:00:41.917Z,15.35
2022-09-02T08:05:46.994Z,15.48
2022-09-02T08:10:49.707Z,15.60
2022-09-02T08:15:51.437Z,15.68
2022-09-02T08:20:53.141Z,15.79
2022-09-02T08:25:54.815Z,15.95
2022-09-02T08:30:57.794Z,16.11
2022-09-02T08:36:04.928Z,16.25
2022-09-02T08:41:17.344Z,16.40
2022-09-02T08:46:19.118Z,16.55
2022-09-02T08:51:33.850Z,16.71
2022-09-02T08:56:39.180Z,16.88
2022-09-02T09:01:48.785Z,16.98
2022-09-02T09:06:59.585Z,17.18
2022-09-02T09:12:16.833Z,17.36
2022-09-02T09:17:39.654Z,17.49
2022-09-02T09:22:41.306Z,17.67
2022-09-02T09:27:45.343Z,17.81
2022-09-02T09:32:49.440Z,17.94
2022-09-02T09:37:51.979Z,18.12
2022-09-02T09:43:14.139Z,18.29
2022-09-02T09:48:16.643Z,18.45
2022-09-02T09:53:22.914Z,18.56
2022-09-02T09:58:39.882Z,18.71
2022-09-02T10:04:20.756Z,18.88
2022-09-02T10:09:33.927Z,19.01
2022-09-02T10:14:55.976Z,19.19
2022-09-02T10:20:07.157Z,19.35
2022-09-02T10:25:34.700Z,19.52
2022-09-02T10:30:45.521Z,19.70
2022-09-02T10:35:49.137Z,19.90
2022-09-02T10:41:00.815Z,20.03
2022-09-02T10:46:02.656Z,20.25
2022-09-02T10:51:27.337Z,20.43
2022-09-02T10:56:35.016Z,20.57
2022-09-02T11:01:46.896Z,20.67
2022-09-02T11:07:02.451Z,20.80
2022-09-02T11:12:09.158Z,20.97
2022-09-02T11:17:16.651Z,21.06
2022-09-02T11:22:43.831Z,21.23
2022-09-02T11:28:04.980Z,21.56
2022-09-02T11:33:26.611Z,21.77
2022-09-02T11:38:37.268Z,21.94
2022-09-02T11:43:46.241Z,21.92
2022-09-02T11:49:15.857Z,22.01
2022-09-02T11:54:18.748Z,22.26
2022-09-02T11:59:44.296Z,22.17
2022-09-02T12:05:00.087Z,22.32
2022-09-02T12:10:03.337Z,22.90
2022-09-02T12:15:05.483Z,22.96
2022-09-02T12:20:12.439Z,23.06
2022-09-02T12:25:26.951Z,23.37
2022-09-02T12:31:08.992Z,23.28
2022-09-02T12:36:36.826Z,23.08
2022-09-02T12:41:39.792Z,22.97
2022-09-02T12:46:44.641Z,22.89
2022-09-02T12:51:57.196Z,22.87
2022-09-02T12:56:58.918Z,23.27
2022-09-02T13:02:16.930Z,24.10
2022-09-02T13:07:27.579Z,24.04
2022-09-02T13:12:49.515Z,24.41
2022-09-02T13:18:14.989Z,25.76
2022-09-02T13:23:43.385Z,25.55
2022-09-02T13:29:23.828Z,25.33
2022-09-02T13:34:25.494Z,25.31
2022-09-02T13:39:28.041Z,25.65
2022-09-02T13:44:29.708Z,25.87
2022-09-02T13:49:38.135Z,25.96
2022-09-02T13:54:39.821Z,26.49
2022-09-02T13:59:48.068Z,26.81
2022-09-02T14:04:51.532Z,27.11
2022-09-02T14:09:53.198Z,27.90
2022-09-02T14:14:54.943Z,28.43
2022-09-02T14:20:14.952Z,29.02
2022-09-02T14:25:16.781Z,28.81
2022-09-02T14:30:37.980Z,28.01
2022-09-02T14:35:39.663Z,28.00
2022-09-02T14:40:43.277Z,28.28
2022-09-02T14:45:47.826Z,27.97
2022-09-02T14:50:49.811Z,27.37
2022-09-02T14:55:55.367Z,27.08
2022-09-02T15:00:59.241Z,27.47
2022-09-02T15:06:00.957Z,26.97
2022-09-02T15:11:02.675Z,26.79
2022-09-02T15:16:04.426Z,26.54
2022-09-02T15:21:06.263Z,26.17
2022-09-02T15:26:08.598Z,25.97
2022-09-02T15:31:10.340Z,25.62
2022-09-02T15:36:12.933Z,25.46
2022-09-02T15:41:18.947Z,25.77
2022-09-02T15:46:28.744Z,25.84
2022-09-02T15:51:30.611Z,26.02
2022-09-02T15:56:33.575Z,26.20
2022-09-02T16:01:35.487Z,26.22
2022-09-02T16:06:39.435Z,26.46
2022-09-02T16:11:42.556Z,26.50
2022-09-02T16:16:45.337Z,26.36
2022-09-02T16:21:47.742Z,26.08
2022-09-02T16:26:49.779Z,25.76
2022-09-02T16:32:13.906Z,25.23
2022-09-02T16:37:13.897Z,24.80
2022-09-02T16:42:15.560Z,24.29
2022-09-02T16:47:17.231Z,23.90
2022-09-02T16:52:19.725Z,23.71
2022-09-02T16:57:21.404Z,23.63
2022-09-02T17:02:23.408Z,23.48
2022-09-02T17:07:25.229Z,23.45
2022-09-02T17:12:26.910Z,23.36
2022-09-02T17:17:29.700Z,23.44
2022-09-02T17:22:31.356Z,23.38
2022-09-02T17:27:39.166Z,23.37
2022-09-02T17:32:41.097Z,23.21
2022-09-02T17:37:42.753Z,23.09
2022-09-02T17:42:44.647Z,23.01
2022-09-02T17:47:46.291Z,22.84
2022-09-02T17:52:47.992Z,22.60
2022-09-02T17:58:05.810Z,22.36
2022-09-02T18:03:26.299Z,22.13
2022-09-02T18:08:37.946Z,21.94
2022-09-02T18:13:54.554Z,21.68
2022-09-02T18:19:19.767Z,21.46
2022-09-02T18:24:50.362Z,21.23
2022-09-02T18:30:02.675Z,20.96
2022-09-02T18:35:25.701Z,20.75
2022-09-02T18:40:29.185Z,20.50
2022-09-02T18:45:39.206Z,20.31
2022-09-02T18:50:50.813Z,20.14
2022-09-02T18:55:52.960Z,19.96
2022-09-02T19:00:55.505Z,19.85
2022-09-02T19:05:57.438Z,19.72
2022-09-02T19:11:05.175Z,19.60
2022-09-02T19:16:06.999Z,19.53
2022-09-02T19:21:08.761Z,19.47
2022-09-02T19:26:10.431Z,19.37
2022-09-02T19:31:18.374Z,19.27
2022-09-02T19:36:20.990Z,19.15
2022-09-02T19:41:25.675Z,19.05
2022-09-02T19:47:07.000Z,18.91
2022-09-02T19:51:49.045Z,18.81
2022-09-02T19:56:51.432Z,18.73
2022-09-02T20:01:53.145Z,18.67
2022-09-02T20:06:55.528Z,18.63
2022-09-02T20:11:57.236Z,18.63
2022-09-02T20:16:59.241Z,18.61
2022-09-02T20:22:00.917Z,18.59
2022-09-02T20:27:14.721Z,18.57
2022-09-02T20:32:23.391Z,18.54
2022-09-02T20:37:32.177Z,18.52
2022-09-02T20:42:37.140Z,18.50
2022-09-02T20:47:50.914Z,18.50
2022-09-02T20:53:11.016Z,18.47
2022-09-02T20:58:17.517Z,18.45
2022-09-02T21:03:19.186Z,18.41
2022-09-02T21:08:33.036Z,18.39
2022-09-02T21:14:05.083Z,18.37
2022-09-02T21:19:22.788Z,18.34
2022-09-02T21:24:36.246Z,18.30
2022-09-02T21:29:42.308Z,18.27
2022-09-02T21:34:56.427Z,18.22
2022-09-02T21:40:02.186Z,18.20
2022-09-02T21:45:23.523Z,18.17
2022-09-02T21:50:59.104Z,18.11
2022-09-02T21:56:25.706Z,18.07
2022-09-02T22:01:55.683Z,18.02
2022-09-02T22:07:28.387Z,17.98
2022-09-02T22:12:30.068Z,17.91
2022-09-02T22:17:45.707Z,17.85
2022-09-02T22:22:53.188Z,17.80
2022-09-02T22:28:12.321Z,17.75
2022-09-02T22:33:14.944Z,17.71
2022-09-02T22:38:27.772Z,17.64
2022-09-02T22:43:34.393Z,17.57
2022-09-02T22:49:16.833Z,17.51
2022-09-02T22:54:18.647Z,17.41
2022-09-02T22:59:30.383Z,17.27
2022-09-02T23:04:46.330Z,17.17
2022-09-02T23:09:48.128Z,17.04
2022-09-02T23:15:10.898Z,16.96
2022-09-02T23:20:21.686Z,16.82
2022-09-02T23:25:50.125Z,16.67
2022-09-02T23:31:10.635Z,16.53
2022-09-02T23:36:20.011Z,16.46
2022-09-02T23:41:21.685Z,16.37
2022-09-02T23:47:01.235Z,16.28
2022-09-02T23:52:26.339Z,16.13
2022-09-02T23:58:05.769Z,16.01
